createdAt,value
2019-03-23T00:00:52.799Z,22.00
2019-03-23T00:01:55.747Z,22.50
2019-03-23T00:02:58.965Z,24.25
2019-03-23T00:04:04.582Z,26.75
2019-03-23T00:05:10.164Z,24.00
2019-03-23T00:06:14.554Z,19.75
2019-03-23T00:07:18.911Z,17.50
2019-03-23T00:08:22.100Z,23.50
2019-03-23T00:09:29.874Z,22.75
2019-03-23T00:10:33.612Z,19.50
2019-03-23T00:11:36.682Z,19.75
2019-03-23T00:12:41.077Z,19.00
2019-03-23T00:13:45.213Z,23.25
2019-03-23T00:14:50.780Z,21.75
2019-03-23T00:15:53.745Z,17.75
2019-03-23T00:16:56.781Z,17.00
2019-03-23T00:17:59.621Z,18.75
2019-03-23T00:19:03.577Z,18.00
2019-03-23T00:20:09.472Z,16.25
2019-03-23T00:21:12.417Z,19.50
2019-03-23T00:22:15.266Z,16.50
2019-03-23T00:23:18.100Z,19.00
2019-03-23T00:24:20.924Z,19.00
2019-03-23T00:25:23.750Z,19.00
2019-03-23T00:26:26.931Z,18.25
2019-03-23T00:27:29.755Z,18.50
2019-03-23T00:28:32.700Z,19.50
2019-03-23T00:29:35.538Z,17.00
2019-03-23T00:30:38.337Z,19.00
2019-03-23T00:31:41.704Z,19.00
2019-03-23T00:32:44.879Z,22.00
2019-03-23T00:33:47.756Z,23.25
2019-03-23T00:34:50.586Z,25.50
2019-03-23T00:35:53.436Z,26.25
2019-03-23T00:36:56.372Z,25.00
2019-03-23T00:37:59.566Z,28.00
2019-03-23T00:39:02.842Z,23.25
2019-03-23T00:40:05.667Z,19.00
2019-03-23T00:41:08.516Z,17.00
2019-03-23T00:42:11.346Z,21.00
2019-03-23T00:43:17.235Z,18.00
2019-03-23T00:44:27.708Z,19.00
2019-03-23T00:45:35.824Z,20.00
2019-03-23T00:46:38.666Z,19.25
2019-03-23T00:47:42.724Z,21.50
2019-03-23T00:48:45.624Z,19.00
2019-03-23T00:49:48.464Z,21.00
2019-03-23T00:50:51.752Z,18.25
2019-03-23T00:51:55.238Z,17.25
2019-03-23T00:52:58.483Z,16.75
2019-03-23T00:54:04.483Z,16.75
2019-03-23T00:55:07.358Z,17.00
2019-03-23T00:56:10.269Z,19.25
2019-03-23T00:57:13.380Z,17.00
2019-03-23T00:58:16.522Z,17.00
2019-03-23T00:59:19.358Z,18.75
2019-03-23T01:00:22.340Z,17.00
2019-03-23T01:01:25.110Z,17.00
2019-03-23T01:02:28.029Z,24.75
2019-03-23T01:03:31.176Z,20.50
2019-03-23T01:04:33.990Z,21.25
2019-03-23T01:05:37.196Z,18.25
2019-03-23T01:06:40.138Z,19.00
2019-03-23T01:07:43.078Z,15.75
2019-03-23T01:08:45.890Z,17.00
2019-03-23T01:09:48.984Z,18.25
2019-03-23T01:10:51.856Z,17.00
2019-03-23T01:11:55.038Z,18.00
2019-03-23T01:12:57.897Z,17.00
2019-03-23T01:14:01.127Z,15.75
2019-03-23T01:15:04.074Z,16.50
2019-03-23T01:16:07.291Z,15.75
2019-03-23T01:17:10.561Z,16.50
2019-03-23T01:18:13.414Z,16.75
2019-03-23T01:19:16.338Z,14.00
2019-03-23T01:20:19.620Z,17.25
2019-03-23T01:21:22.509Z,16.00
2019-03-23T01:22:25.627Z,19.00
2019-03-23T01:23:28.527Z,16.50
2019-03-23T01:24:31.347Z,17.00
2019-03-23T01:25:34.159Z,15.75
2019-03-23T01:26:36.965Z,17.50
2019-03-23T01:27:39.798Z,16.00
2019-03-23T01:28:43.358Z,19.00
2019-03-23T01:29:48.677Z,18.25
2019-03-23T01:30:51.922Z,16.50
2019-03-23T01:31:54.788Z,19.00
2019-03-23T01:32:57.992Z,21.00
2019-03-23T01:34:00.867Z,18.25
2019-03-23T01:35:03.666Z,17.75
2019-03-23T01:36:06.489Z,19.00
2019-03-23T01:37:09.761Z,24.25
2019-03-23T01:38:12.599Z,19.25
2019-03-23T01:39:15.660Z,21.00
2019-03-23T01:40:18.713Z,17.75
2019-03-23T01:41:21.634Z,21.50
2019-03-23T01:42:24.472Z,21.00
2019-03-23T01:43:27.319Z,17.75
2019-03-23T01:44:30.232Z,17.25
2019-03-23T01:45:33.145Z,19.00
2019-03-23T01:46:36.258Z,17.50
2019-03-23T01:47:39.104Z,17.75
2019-03-23T01:48:41.889Z,16.00
2019-03-23T01:49:44.763Z,18.75
2019-03-23T01:50:47.629Z,16.00
2019-03-23T01:51:50.834Z,17.50
2019-03-23T01:52:53.977Z,18.25
2019-03-23T01:53:56.836Z,18.75
2019-03-23T01:54:59.645Z,16.75
2019-03-23T01:56:02.544Z,14.50
2019-03-23T01:57:05.408Z,16.25
2019-03-23T01:58:08.238Z,17.50
2019-03-23T01:59:11.345Z,16.00
2019-03-23T02:00:14.234Z,16.50
2019-03-23T02:01:17.415Z,16.25
2019-03-23T02:02:20.654Z,16.00
2019-03-23T02:03:23.451Z,18.25
2019-03-23T02:04:26.256Z,16.00
2019-03-23T02:05:29.364Z,17.50
2019-03-23T02:06:32.552Z,15.50
2019-03-23T02:07:35.438Z,17.25
2019-03-23T02:08:38.226Z,15.00
2019-03-23T02:09:41.051Z,21.00
2019-03-23T02:10:43.860Z,22.50
2019-03-23T02:11:46.960Z,20.25
2019-03-23T02:12:50.186Z,21.25
2019-03-23T02:13:53.043Z,15.50
2019-03-23T02:14:55.904Z,19.00
2019-03-23T02:15:59.079Z,17.25
2019-03-23T02:17:01.972Z,18.25
2019-03-23T02:18:05.079Z,16.50
2019-03-23T02:19:09.563Z,18.75
2019-03-23T02:20:12.403Z,17.50
2019-03-23T02:21:15.245Z,17.50
2019-03-23T02:22:18.120Z,16.00
2019-03-23T02:23:21.277Z,18.50
2019-03-23T02:24:24.406Z,16.00
2019-03-23T02:25:27.564Z,20.50
2019-03-23T02:26:30.368Z,22.50
2019-03-23T02:27:33.243Z,21.75
2019-03-23T02:28:36.105Z,27.00
2019-03-23T02:29:39.003Z,20.25
2019-03-23T02:30:42.112Z,20.25
2019-03-23T02:31:47.213Z,20.25
2019-03-23T02:32:49.998Z,16.50
2019-03-23T02:33:52.910Z,19.00
2019-03-23T02:34:55.736Z,14.50
2019-03-23T02:35:58.549Z,18.00
2019-03-23T02:37:01.635Z,15.00
2019-03-23T02:38:04.522Z,16.50
2019-03-23T02:39:07.600Z,19.75
2019-03-23T02:40:11.135Z,19.75
2019-03-23T02:41:17.716Z,19.50
2019-03-23T02:42:20.576Z,19.25
2019-03-23T02:43:23.702Z,19.75
2019-03-23T02:44:27.068Z,17.50
2019-03-23T02:45:30.490Z,17.50
2019-03-23T02:46:33.533Z,19.75
2019-03-23T02:47:36.339Z,15.00
2019-03-23T02:48:39.211Z,17.50
2019-03-23T02:49:43.579Z,18.50
2019-03-23T02:50:46.470Z,26.25
2019-03-23T02:51:49.289Z,25.00
2019-03-23T02:52:52.134Z,25.25
2019-03-23T02:53:54.960Z,27.00
2019-03-23T02:54:57.780Z,23.75
2019-03-23T02:56:00.967Z,23.75
2019-03-23T02:57:03.783Z,21.50
2019-03-23T02:58:06.594Z,25.00
2019-03-23T02:59:09.505Z,25.50
2019-03-23T03:00:12.295Z,24.25
2019-03-23T03:01:15.177Z,27.75
2019-03-23T03:02:18.299Z,23.75
2019-03-23T03:03:21.505Z,26.75
2019-03-23T03:04:24.311Z,22.50
2019-03-23T03:05:27.137Z,23.25
2019-03-23T03:06:30.004Z,20.00
2019-03-23T03:07:41.742Z,21.00
2019-03-23T03:08:37.673Z,19.75
2019-03-23T03:09:40.475Z,21.75
2019-03-23T03:10:43.359Z,20.00
2019-03-23T03:11:46.149Z,21.50
2019-03-23T03:12:48.977Z,20.00
2019-03-23T03:13:52.093Z,19.00
2019-03-23T03:14:54.887Z,18.00
2019-03-23T03:15:58.161Z,19.50
2019-03-23T03:17:01.044Z,17.50
2019-03-23T03:18:03.882Z,18.00
2019-03-23T03:19:06.701Z,16.00
2019-03-23T03:20:10.262Z,17.50
2019-03-23T03:21:13.149Z,16.00
2019-03-23T03:22:15.975Z,14.00
2019-03-23T03:23:18.859Z,17.00
2019-03-23T03:24:21.649Z,16.00
2019-03-23T03:25:24.754Z,20.00
2019-03-23T03:26:27.924Z,16.00
2019-03-23T03:27:30.776Z,14.00
2019-03-23T03:28:33.893Z,17.00
2019-03-23T03:29:37.875Z,16.00
2019-03-23T03:30:41.185Z,16.00
2019-03-23T03:31:44.070Z,14.25
2019-03-23T03:32:47.475Z,14.00
2019-03-23T03:33:50.421Z,16.50
2019-03-23T03:34:53.322Z,13.50
2019-03-23T03:35:56.552Z,15.50
2019-03-23T03:36:59.414Z,13.75
2019-03-23T03:38:02.612Z,13.25
2019-03-23T03:39:05.919Z,17.00
2019-03-23T03:40:09.037Z,14.50
2019-03-23T03:41:11.890Z,15.50
2019-03-23T03:42:14.851Z,16.00
2019-03-23T03:43:17.729Z,13.00
2019-03-23T03:44:22.097Z,16.25
2019-03-23T03:45:25.228Z,16.00
2019-03-23T03:46:28.134Z,14.00
2019-03-23T03:47:31.022Z,16.00
2019-03-23T03:48:34.303Z,15.25
2019-03-23T03:49:37.116Z,13.75
2019-03-23T03:50:39.933Z,16.00
2019-03-23T03:51:43.125Z,12.75
2019-03-23T03:52:46.368Z,14.75
2019-03-23T03:53:49.218Z,15.75
2019-03-23T03:54:52.113Z,17.75
2019-03-23T03:55:54.936Z,18.00
2019-03-23T03:56:57.765Z,17.00
2019-03-23T03:58:00.958Z,23.50
2019-03-23T03:59:03.757Z,17.50
2019-03-23T04:00:06.612Z,18.50
2019-03-23T04:01:09.458Z,21.50
2019-03-23T04:02:12.659Z,18.50
2019-03-23T04:03:15.556Z,21.75
2019-03-23T04:04:18.666Z,17.50
2019-03-23T04:05:21.887Z,23.50
2019-03-23T04:06:24.795Z,24.50
2019-03-23T04:07:28.035Z,24.25
2019-03-23T04:08:31.663Z,25.75
2019-03-23T04:09:34.464Z,23.00
2019-03-23T04:10:37.590Z,27.75
2019-03-23T04:11:40.454Z,21.00
2019-03-23T04:12:43.653Z,22.75
2019-03-23T04:13:46.455Z,20.00
2019-03-23T04:14:49.302Z,23.75
2019-03-23T04:15:52.132Z,23.75
2019-03-23T04:16:56.466Z,26.00
2019-03-23T04:17:59.283Z,22.50
2019-03-23T04:19:02.069Z,25.75
2019-03-23T04:20:04.954Z,26.25
2019-03-23T04:21:08.186Z,26.25
2019-03-23T04:22:10.976Z,24.75
2019-03-23T04:23:14.051Z,29.00
2019-03-23T04:24:16.843Z,28.00
2019-03-23T04:25:19.739Z,27.50
2019-03-23T04:26:22.561Z,28.75
2019-03-23T04:27:28.148Z,30.75
2019-03-23T04:28:30.953Z,29.75
2019-03-23T04:29:36.541Z,25.50
2019-03-23T04:30:39.803Z,28.25
2019-03-23T04:31:42.598Z,29.25
2019-03-23T04:32:45.506Z,31.75
2019-03-23T04:33:48.316Z,28.25
2019-03-23T04:34:51.156Z,25.75
2019-03-23T04:35:54.521Z,30.75
2019-03-23T04:36:57.362Z,29.00
2019-03-23T04:38:00.217Z,28.75
2019-03-23T04:39:03.054Z,29.00
2019-03-23T04:40:05.880Z,29.75
2019-03-23T04:41:09.585Z,31.00
2019-03-23T04:42:13.035Z,31.75
2019-03-23T04:43:16.280Z,26.00
2019-03-23T04:44:19.133Z,32.75
2019-03-23T04:45:21.996Z,28.50
2019-03-23T04:46:24.914Z,32.50
2019-03-23T04:47:27.804Z,31.25
2019-03-23T04:48:31.366Z,28.25
2019-03-23T04:49:34.196Z,27.00
2019-03-23T04:50:43.116Z,20.50
2019-03-23T04:51:46.419Z,27.75
2019-03-23T04:52:49.214Z,25.75
2019-03-23T04:53:52.012Z,25.50
2019-03-23T04:54:55.548Z,26.00
2019-03-23T04:55:58.373Z,28.50
2019-03-23T04:57:01.263Z,26.75
2019-03-23T04:58:04.057Z,28.50
2019-03-23T04:59:06.887Z,29.75
2019-03-23T05:00:09.710Z,27.75
2019-03-23T05:01:12.786Z,27.75
2019-03-23T05:02:15.694Z,29.50
2019-03-23T05:03:18.513Z,26.25
2019-03-23T05:04:22.548Z,24.50
2019-03-23T05:05:25.737Z,20.75
2019-03-23T05:06:28.913Z,25.00
2019-03-23T05:07:32.346Z,21.00
2019-03-23T05:08:35.136Z,24.00
2019-03-23T05:09:40.738Z,19.75
2019-03-23T05:10:43.680Z,17.25
2019-03-23T05:11:46.878Z,17.75
2019-03-23T05:12:52.275Z,17.50
2019-03-23T05:13:58.288Z,15.75
2019-03-23T05:15:01.930Z,16.00
2019-03-23T05:16:05.157Z,16.75
2019-03-23T05:17:08.026Z,18.50
2019-03-23T05:18:11.435Z,18.75
2019-03-23T05:19:14.602Z,18.75
2019-03-23T05:20:17.692Z,15.50
2019-03-23T05:21:20.993Z,16.75
2019-03-23T05:22:23.783Z,14.75
2019-03-23T05:23:26.665Z,19.25
2019-03-23T05:24:29.898Z,20.00
2019-03-23T05:25:32.717Z,20.00
2019-03-23T05:26:35.862Z,24.00
2019-03-23T05:27:38.674Z,17.00
2019-03-23T05:28:43.442Z,17.75
2019-03-23T05:29:46.221Z,18.25
2019-03-23T05:30:49.075Z,18.75
2019-03-23T05:31:54.299Z,15.50
2019-03-23T05:32:57.401Z,15.50
2019-03-23T05:34:00.192Z,15.25
2019-03-23T05:35:02.988Z,15.50
2019-03-23T05:36:05.877Z,15.00
2019-03-23T05:37:08.697Z,15.00
2019-03-23T05:38:11.504Z,14.75
2019-03-23T05:39:15.100Z,13.50
2019-03-23T05:40:18.331Z,16.00
2019-03-23T05:41:21.212Z,22.00
2019-03-23T05:42:24.058Z,18.75
2019-03-23T05:43:27.003Z,18.00
2019-03-23T05:44:31.044Z,16.25
2019-03-23T05:45:34.232Z,20.75
2019-03-23T05:46:37.327Z,16.00
2019-03-23T05:47:40.159Z,15.25
2019-03-23T05:48:42.941Z,16.75
2019-03-23T05:49:46.593Z,16.50
2019-03-23T05:50:50.429Z,16.50
2019-03-23T05:51:53.602Z,21.00
2019-03-23T05:52:56.505Z,18.50
2019-03-23T05:54:01.852Z,17.00
2019-03-23T05:55:04.686Z,17.25
2019-03-23T05:56:07.565Z,14.25
2019-03-23T05:57:13.495Z,17.75
2019-03-23T05:58:16.652Z,16.50
2019-03-23T05:59:19.738Z,18.75
2019-03-23T06:00:22.550Z,14.00
2019-03-23T06:01:25.422Z,16.50
2019-03-23T06:02:28.303Z,11.00
2019-03-23T06:03:31.139Z,15.00
2019-03-23T06:04:34.265Z,10.00
2019-03-23T06:05:37.519Z,17.75
2019-03-23T06:06:40.372Z,15.50
2019-03-23T06:07:43.203Z,15.00
2019-03-23T06:08:54.488Z,16.50
2019-03-23T06:09:51.035Z,13.00
2019-03-23T06:10:54.132Z,15.00
2019-03-23T06:11:57.044Z,15.25
2019-03-23T06:13:02.322Z,13.00
2019-03-23T06:14:05.220Z,13.50
2019-03-23T06:15:08.051Z,17.25
2019-03-23T06:16:10.906Z,13.00
2019-03-23T06:17:16.694Z,15.00
2019-03-23T06:18:23.975Z,16.25
2019-03-23T06:19:26.913Z,15.00
2019-03-23T06:20:31.971Z,13.50
2019-03-23T06:21:34.800Z,13.00
2019-03-23T06:22:37.706Z,14.50
2019-03-23T06:23:40.883Z,16.25
2019-03-23T06:24:43.789Z,14.75
2019-03-23T06:25:46.578Z,13.25
2019-03-23T06:26:49.412Z,13.50
2019-03-23T06:27:52.494Z,16.00
2019-03-23T06:28:55.726Z,15.75
2019-03-23T06:29:58.859Z,16.00
2019-03-23T06:43:59.520Z,18.50
2019-03-23T06:45:02.458Z,17.50
2019-03-23T06:46:05.328Z,16.25
2019-03-23T06:47:08.185Z,16.00
2019-03-23T06:48:10.985Z,18.75
2019-03-23T06:49:14.093Z,17.00
2019-03-23T06:50:18.955Z,15.75
2019-03-23T06:51:21.845Z,14.50
2019-03-23T06:52:25.068Z,14.00
2019-03-23T06:53:27.870Z,13.75
2019-03-23T06:54:30.676Z,14.50
2019-03-23T06:55:33.821Z,14.00
2019-03-23T06:56:38.925Z,17.50
2019-03-23T06:57:41.789Z,19.75
2019-03-23T06:58:44.596Z,20.00
2019-03-23T06:59:47.389Z,19.25
2019-03-23T07:00:50.252Z,16.25
2019-03-23T07:01:53.163Z,17.00
2019-03-23T07:02:58.247Z,14.00
2019-03-23T07:04:01.101Z,19.25
2019-03-23T07:05:03.915Z,19.00
2019-03-23T07:06:06.763Z,19.25
2019-03-23T07:07:11.138Z,17.75
2019-03-23T07:08:15.391Z,23.00
2019-03-23T07:09:18.213Z,21.25
2019-03-23T07:10:21.067Z,22.75
2019-03-23T07:11:25.696Z,21.00
2019-03-23T07:12:28.598Z,25.00
2019-03-23T07:13:34.771Z,25.50
2019-03-23T07:14:37.602Z,25.25
2019-03-23T07:15:40.766Z,28.00
2019-03-23T07:16:43.609Z,29.00
2019-03-23T07:17:52.387Z,29.00
2019-03-23T07:18:55.267Z,30.00
2019-03-23T07:20:00.519Z,31.50
2019-03-23T07:21:03.732Z,32.25
2019-03-23T07:22:06.559Z,31.00
2019-03-23T07:23:09.400Z,30.00
2019-03-23T07:24:12.654Z,29.75
2019-03-23T07:25:15.853Z,29.00
2019-03-23T07:26:18.664Z,32.25
2019-03-23T07:27:21.511Z,27.25
2019-03-23T07:28:24.322Z,30.75
2019-03-23T07:29:27.213Z,32.25
2019-03-23T07:30:31.235Z,29.75
2019-03-23T07:31:36.117Z,25.50
2019-03-23T07:32:39.429Z,31.50
2019-03-23T07:33:45.247Z,29.00
2019-03-23T07:34:48.584Z,31.00
2019-03-23T07:35:54.640Z,28.00
2019-03-23T07:36:57.532Z,27.75
2019-03-23T07:38:00.658Z,28.50
2019-03-23T07:39:26.465Z,28.25
2019-03-23T07:40:20.890Z,32.50
2019-03-23T07:41:23.816Z,34.25
2019-03-23T07:42:26.623Z,31.00
2019-03-23T07:43:31.097Z,34.00
2019-03-23T07:44:34.338Z,30.00
2019-03-23T07:45:38.272Z,29.50
2019-03-23T07:46:41.601Z,28.75
2019-03-23T07:47:44.473Z,31.50
2019-03-23T07:48:47.327Z,29.25
2019-03-23T07:49:50.201Z,34.25
2019-03-23T07:50:53.312Z,31.75
2019-03-23T07:51:56.122Z,32.25
2019-03-23T07:53:01.879Z,30.75
2019-03-23T07:54:04.412Z,30.00
2019-03-23T07:55:07.298Z,27.50
2019-03-23T07:56:10.103Z,30.50
2019-03-23T07:57:13.646Z,29.00
2019-03-23T07:58:16.529Z,32.75
2019-03-23T07:59:19.355Z,27.50
2019-03-23T08:00:22.205Z,26.75
2019-03-23T08:01:27.324Z,28.50
2019-03-23T08:02:34.329Z,26.75
2019-03-23T08:03:39.326Z,31.00
2019-03-23T08:04:42.155Z,28.00
2019-03-23T08:05:53.847Z,29.75
2019-03-23T08:06:57.063Z,32.00
2019-03-23T08:08:01.836Z,28.00
2019-03-23T08:09:05.875Z,27.75
2019-03-23T08:10:12.031Z,33.50
2019-03-23T08:11:16.912Z,30.50
2019-03-23T08:12:19.382Z,29.25
2019-03-23T08:13:28.343Z,28.50
2019-03-23T08:14:32.656Z,30.50
2019-03-23T08:15:35.477Z,30.75
2019-03-23T08:16:38.691Z,33.25
2019-03-23T08:17:44.716Z,30.50
2019-03-23T08:18:50.577Z,31.00
2019-03-23T08:19:54.721Z,36.25
2019-03-23T08:21:01.289Z,33.00
2019-03-23T08:22:06.078Z,34.75
2019-03-23T08:23:29.023Z,35.50
2019-03-23T08:24:34.257Z,35.00
2019-03-23T08:25:37.205Z,33.00
2019-03-23T08:26:49.816Z,33.25
2019-03-23T08:27:55.072Z,36.25
2019-03-23T08:28:59.612Z,37.75
2019-03-23T08:30:07.844Z,41.75
2019-03-23T08:31:10.716Z,36.25
2019-03-23T08:32:13.513Z,35.00
2019-03-23T08:33:18.288Z,39.25
2019-03-23T08:34:22.050Z,39.00
2019-03-23T08:35:25.289Z,35.75
2019-03-23T08:36:28.513Z,38.25
2019-03-23T08:37:38.081Z,38.25
2019-03-23T08:38:40.634Z,39.00
2019-03-23T08:39:50.709Z,41.00
2019-03-23T08:40:55.014Z,37.25
2019-03-23T08:41:58.939Z,40.00
2019-03-23T08:43:02.106Z,37.25
2019-03-23T08:44:04.969Z,37.25
2019-03-23T08:45:07.860Z,41.50
2019-03-23T08:46:20.043Z,35.75
2019-03-23T08:47:25.414Z,40.50
2019-03-23T08:48:28.800Z,43.25
2019-03-23T08:49:32.167Z,37.50
2019-03-23T08:50:37.532Z,37.50
2019-03-23T08:51:42.848Z,37.00
2019-03-23T08:52:46.001Z,43.00
2019-03-23T08:53:50.496Z,39.75
2019-03-23T08:55:02.350Z,43.25
2019-03-23T08:56:05.822Z,45.25
2019-03-23T08:57:08.640Z,46.75
2019-03-23T08:58:13.921Z,44.00
2019-03-23T08:59:16.768Z,47.00
2019-03-23T09:00:19.589Z,48.00
2019-03-23T09:01:25.762Z,47.00
2019-03-23T09:02:28.672Z,48.50
2019-03-23T09:03:33.318Z,48.75
2019-03-23T09:04:36.119Z,47.50
2019-03-23T09:05:38.987Z,49.25
2019-03-23T09:06:41.813Z,49.75
2019-03-23T09:08:53.628Z,50.75
2019-03-23T09:09:59.483Z,53.00
2019-03-23T09:11:00.946Z,50.50
2019-03-23T09:12:05.270Z,52.00
2019-03-23T09:13:10.897Z,54.50
2019-03-23T09:14:14.641Z,54.75
2019-03-23T09:15:17.480Z,56.25
2019-03-23T09:16:20.305Z,56.50
2019-03-23T09:17:23.110Z,59.50
2019-03-23T09:18:26.348Z,58.00
2019-03-23T09:19:32.413Z,58.75
2019-03-23T09:20:35.672Z,58.25
2019-03-23T09:21:38.479Z,62.50
2019-03-23T09:22:44.010Z,58.25
2019-03-23T09:23:47.716Z,58.50
2019-03-23T09:24:50.607Z,57.50
2019-03-23T09:25:53.401Z,59.00
2019-03-23T09:26:56.873Z,59.00
2019-03-23T09:27:59.759Z,57.25
2019-03-23T09:29:02.624Z,60.25
2019-03-23T09:30:05.636Z,55.00
2019-03-23T09:31:08.943Z,58.00
2019-03-23T09:32:11.806Z,60.75
2019-03-23T09:33:15.066Z,60.00
2019-03-23T09:34:18.941Z,60.00
2019-03-23T09:35:24.963Z,62.25
2019-03-23T09:36:28.030Z,57.50
2019-03-23T09:37:30.955Z,58.50
2019-03-23T09:38:35.356Z,59.00
2019-03-23T09:39:38.252Z,59.25
2019-03-23T09:40:41.202Z,58.25
2019-03-23T09:41:45.691Z,60.25
2019-03-23T09:42:50.403Z,62.25
2019-03-23T09:43:55.359Z,62.75
2019-03-23T09:44:58.386Z,61.00
2019-03-23T09:46:02.700Z,62.75
2019-03-23T09:47:09.115Z,61.75
2019-03-23T09:48:12.011Z,61.00
2019-03-23T09:49:14.878Z,61.75
2019-03-23T09:50:18.132Z,61.00
2019-03-23T09:51:21.240Z,60.50
2019-03-23T09:52:24.804Z,63.00
2019-03-23T09:53:27.985Z,60.75
2019-03-23T09:54:31.611Z,64.00
2019-03-23T09:55:34.884Z,66.25
2019-03-23T09:56:40.789Z,62.75
2019-03-23T09:57:45.203Z,60.50
2019-03-23T09:58:48.173Z,61.50
2019-03-23T09:59:51.001Z,64.00
2019-03-23T10:00:54.121Z,63.25
2019-03-23T10:01:57.006Z,66.75
2019-03-23T10:03:00.243Z,65.00
2019-03-23T10:04:04.362Z,66.50
2019-03-23T10:05:07.218Z,63.50
2019-03-23T10:06:13.184Z,62.25
2019-03-23T10:07:16.045Z,65.50
2019-03-23T10:08:19.082Z,66.00
2019-03-23T10:09:22.290Z,66.00
2019-03-23T10:10:25.172Z,62.75
2019-03-23T10:11:28.014Z,65.00
2019-03-23T10:12:30.876Z,62.75
2019-03-23T10:13:33.730Z,65.50
2019-03-23T10:14:36.594Z,66.75
2019-03-23T10:15:48.806Z,60.75
2019-03-23T10:16:51.633Z,64.25
2019-03-23T10:18:01.815Z,66.75
2019-03-23T10:19:04.748Z,62.25
2019-03-23T10:20:12.762Z,62.75
2019-03-23T10:21:15.622Z,63.00
2019-03-23T10:22:22.596Z,65.00
2019-03-23T10:23:25.536Z,63.00
2019-03-23T10:24:28.423Z,60.75
2019-03-23T10:25:31.274Z,65.75
2019-03-23T10:26:35.676Z,63.00
2019-03-23T10:27:38.498Z,65.50
2019-03-23T10:28:45.141Z,63.00
2019-03-23T10:29:48.034Z,63.25
2019-03-23T10:30:51.417Z,64.25
2019-03-23T10:31:55.792Z,64.00
2019-03-23T10:32:59.052Z,65.75
2019-03-23T10:34:02.298Z,65.50
2019-03-23T10:35:12.824Z,60.00
2019-03-23T10:36:15.740Z,63.75
2019-03-23T10:37:18.667Z,63.75
2019-03-23T10:38:21.540Z,67.00
2019-03-23T10:39:24.344Z,66.75
2019-03-23T10:40:32.433Z,62.75
2019-03-23T10:41:32.601Z,66.50
2019-03-23T10:42:35.446Z,61.75
2019-03-23T10:43:39.113Z,66.50
2019-03-23T10:44:45.249Z,65.50
2019-03-23T10:45:48.141Z,66.75
2019-03-23T10:46:51.534Z,63.25
2019-03-23T10:47:58.228Z,68.00
2019-03-23T10:49:01.900Z,63.25
2019-03-23T10:50:08.218Z,65.75
2019-03-23T10:51:11.133Z,66.00
2019-03-23T10:52:14.382Z,63.00
2019-03-23T10:53:23.296Z,63.50
2019-03-23T10:54:27.025Z,62.75
2019-03-23T10:55:29.883Z,66.50
2019-03-23T10:56:32.700Z,63.25
2019-03-23T10:57:36.762Z,66.00
2019-03-23T10:58:39.555Z,66.50
2019-03-23T10:59:52.490Z,64.50
2019-03-23T11:00:55.348Z,64.00
2019-03-23T11:01:58.262Z,65.75
2019-03-23T11:03:03.889Z,62.25
2019-03-23T11:04:06.701Z,63.00
2019-03-23T11:05:10.190Z,63.00
2019-03-23T11:06:15.318Z,62.25
2019-03-23T11:07:18.184Z,63.75
2019-03-23T11:08:24.684Z,62.75
2019-03-23T11:09:29.142Z,63.75
2019-03-23T11:10:41.462Z,65.00
2019-03-23T11:12:01.967Z,61.75
2019-03-23T11:13:06.843Z,63.75
2019-03-23T11:14:10.668Z,56.75
2019-03-23T11:15:14.632Z,61.75
2019-03-23T11:16:23.325Z,61.25
2019-03-23T11:17:26.256Z,66.00
2019-03-23T11:18:34.572Z,57.50
2019-03-23T11:19:40.403Z,61.75
2019-03-23T11:20:43.228Z,63.75
2019-03-23T11:21:46.499Z,63.00
2019-03-23T11:22:49.399Z,58.50
2019-03-23T11:23:52.264Z,62.25
2019-03-23T11:24:55.467Z,59.00
2019-03-23T11:25:59.910Z,61.00
2019-03-23T11:27:02.786Z,62.25
2019-03-23T11:28:07.969Z,64.50
2019-03-23T11:29:10.961Z,58.00
2019-03-23T11:42:50.421Z,55.00
2019-03-23T11:44:04.702Z,56.75
2019-03-23T11:49:19.205Z,61.00
2019-03-23T11:50:23.258Z,63.00
2019-03-23T12:11:41.843Z,57.75
2019-03-23T12:12:45.248Z,58.50
2019-03-23T12:13:48.098Z,61.75
2019-03-23T12:14:53.217Z,59.75
2019-03-23T12:15:56.138Z,64.00
2019-03-23T12:16:59.487Z,64.00
2019-03-23T12:18:02.437Z,60.25
2019-03-23T12:19:05.399Z,60.00
2019-03-23T12:20:08.216Z,62.25
2019-03-23T12:21:11.515Z,62.00
2019-03-23T12:22:14.488Z,58.00
2019-03-23T12:23:17.709Z,64.75
2019-03-23T12:24:20.635Z,58.00
2019-03-23T12:25:25.169Z,63.00
2019-03-23T12:26:28.544Z,63.25
2019-03-23T12:27:37.848Z,59.25
2019-03-23T12:28:44.806Z,64.25
2019-03-23T12:29:47.906Z,63.25
2019-03-23T12:30:50.722Z,57.75
2019-03-23T12:31:53.553Z,63.50
2019-03-23T12:32:56.385Z,59.75
2019-03-23T12:34:10.485Z,57.25
2019-03-23T12:35:18.195Z,65.75
2019-03-23T12:36:21.134Z,59.25
2019-03-23T12:37:24.019Z,63.75
2019-03-23T12:38:27.105Z,67.50
2019-03-23T12:39:32.843Z,63.25
2019-03-23T12:40:36.494Z,59.75
2019-03-23T12:41:39.782Z,61.50
2019-03-23T12:42:42.639Z,66.25
2019-03-23T12:43:48.519Z,64.75
2019-03-23T12:45:05.353Z,57.25
2019-03-23T12:46:08.417Z,58.75
2019-03-23T12:47:11.661Z,60.25
2019-03-23T12:48:15.366Z,64.50
2019-03-23T12:49:18.213Z,62.00
2019-03-23T12:50:21.117Z,60.75
2019-03-23T12:51:24.022Z,60.00
2019-03-23T12:52:26.819Z,59.75
2019-03-23T12:53:30.136Z,60.00
2019-03-23T12:54:36.946Z,63.75
2019-03-23T12:55:51.053Z,64.50
2019-03-23T12:56:54.040Z,57.75
2019-03-23T12:57:57.807Z,62.25
2019-03-23T12:59:00.662Z,56.50
2019-03-23T13:00:04.793Z,63.00
2019-03-23T13:01:10.807Z,57.50
2019-03-23T13:02:13.982Z,61.75
2019-03-23T13:03:16.866Z,63.75
2019-03-23T13:04:20.222Z,60.75
2019-03-23T13:05:26.641Z,64.25
2019-03-23T13:06:32.299Z,64.50
2019-03-23T13:07:34.622Z,61.00
2019-03-23T13:08:39.731Z,61.25
2019-03-23T13:09:45.303Z,57.50
2019-03-23T13:10:51.202Z,60.25
2019-03-23T13:11:55.571Z,58.00
2019-03-23T13:12:58.536Z,59.00
2019-03-23T13:14:01.743Z,57.25
2019-03-23T13:15:04.816Z,59.50
2019-03-23T13:16:11.212Z,61.75
2019-03-23T13:17:14.142Z,54.50
2019-03-23T13:18:27.104Z,54.50
2019-03-23T13:19:25.539Z,58.25
2019-03-23T13:20:28.534Z,54.50
2019-03-23T13:21:31.436Z,58.50
2019-03-23T13:22:34.321Z,57.25
2019-03-23T13:23:39.016Z,54.75
2019-03-23T13:24:42.307Z,55.75
2019-03-23T13:25:47.484Z,58.25
2019-03-23T13:27:00.350Z,58.25
2019-03-23T13:28:05.223Z,54.50
2019-03-23T13:29:11.675Z,52.50
2019-03-23T13:30:14.511Z,59.00
2019-03-23T13:31:17.444Z,57.75
2019-03-23T13:32:20.733Z,56.50
2019-03-23T13:33:23.669Z,54.50
2019-03-23T13:34:26.853Z,53.00
2019-03-23T13:35:32.222Z,53.00
2019-03-23T13:36:35.102Z,55.75
2019-03-23T13:37:39.760Z,56.50
2019-03-23T13:38:45.678Z,57.50
2019-03-23T13:39:51.423Z,55.25
2019-03-23T13:40:54.247Z,56.25
2019-03-23T13:41:57.505Z,57.75
2019-03-23T13:43:03.678Z,54.00
2019-03-23T13:44:06.672Z,55.75
2019-03-23T13:45:11.294Z,55.25
2019-03-23T13:46:14.126Z,56.50
2019-03-23T13:47:18.325Z,54.50
2019-03-23T13:48:21.257Z,58.50
2019-03-23T13:49:24.581Z,59.00
2019-03-23T13:50:27.789Z,57.75
2019-03-23T13:52:55.330Z,51.00
2019-03-23T13:53:58.166Z,52.50
2019-03-23T13:55:05.104Z,56.75
2019-03-23T13:56:07.927Z,55.00
2019-03-23T13:57:13.924Z,55.25
2019-03-23T13:58:16.856Z,54.50
2019-03-23T13:59:19.692Z,57.00
2019-03-23T14:00:22.880Z,56.00
2019-03-23T14:01:29.131Z,54.75
2019-03-23T14:02:33.677Z,54.00
2019-03-23T14:03:37.237Z,58.00
2019-03-23T14:04:40.102Z,56.50
2019-03-23T14:05:42.923Z,56.75
2019-03-23T14:06:45.810Z,54.25
2019-03-23T14:07:50.319Z,53.75
2019-03-23T14:08:53.263Z,59.25
2019-03-23T14:09:56.508Z,57.00
2019-03-23T14:11:02.811Z,56.00
2019-03-23T14:12:08.516Z,55.00
2019-03-23T14:13:11.744Z,56.00
2019-03-23T14:14:14.818Z,53.50
2019-03-23T14:15:17.725Z,55.25
2019-03-23T14:16:20.912Z,55.00
2019-03-23T14:17:23.796Z,59.00
2019-03-23T14:18:29.785Z,56.25
2019-03-23T14:19:33.045Z,55.75
2019-03-23T14:20:36.130Z,56.50
2019-03-23T14:21:42.098Z,58.50
2019-03-23T14:22:50.662Z,54.50
2019-03-23T14:23:55.250Z,57.00
2019-03-23T14:25:00.932Z,55.75
2019-03-23T14:26:05.116Z,57.75
2019-03-23T14:27:08.541Z,55.75
2019-03-23T14:28:11.536Z,56.50
2019-03-23T14:29:14.732Z,56.50
2019-03-23T14:30:21.983Z,55.25
2019-03-23T14:31:27.657Z,53.75
2019-03-23T14:32:30.552Z,53.75
2019-03-23T14:33:42.560Z,55.50
2019-03-23T14:34:47.246Z,52.50